
Distance (Route):
Temperature : -50.4°C
Humidity : 1.0%
Pressure : -1.0hPa| Receiver | Frames | First received | Last received |
|---|---|---|---|
| DJ2DS-15 | 21 | 2026-08-31 00:45:39 | 2026-08-31 00:51:20 |
| Receiver | Date | Latitude | Longitude | Direction | Speed | Altitude | Climb | Temperature | Humidity | Pressure | Voltage | Killtimer | Uptime | BKT | XDATA |
|---|---|---|---|---|---|---|---|---|---|---|---|---|---|---|---|
| DJ2DS-15 | 2026-08-31 00:51:20 | 55.26484 | -1.52800 | 88° | 29km/h | 24525m | -20.4m/s | -50.4°C | 1.0% | -1.0hPa | 2.6V | 00:00:00 | 00:00:00 | 00:00:00 | |
| DJ2DS-15 | 2026-08-31 00:51:06 | 55.26523 | -1.52882 | 267° | 13km/h | 24790m | -18.7m/s | -50.9°C | 4.0% | 0hPa | 2.6V | 08:28:00 | 02:02:01 | 00:00:00 | |
| DJ2DS-15 | 2026-08-31 00:50:46 | 55.26517 | -1.52910 | 140° | 9km/h | 25182m | -19.7m/s | -51.1°C | 4.2% | 0hPa | 2.6V | 00:00:00 | 02:01:41 | 00:00:00 | |
| DJ2DS-15 | 2026-08-31 00:50:21 | 55.26503 | -1.52982 | 79° | 13km/h | 25732m | -24.6m/s | -50.1°C | 3.8% | 0hPa | 2.6V | 00:00:00 | 02:01:16 | 00:00:00 | |
| DJ2DS-15 | 2026-08-31 00:50:08 | 55.26499 | -1.53003 | 339° | 15km/h | 26051m | -24.5m/s | -50.0°C | 1.0% | -1.0hPa | 2.6V | 00:00:00 | 00:00:00 | 00:00:00 | |
| DJ2DS-15 | 2026-08-31 00:50:00 | 55.26465 | -1.52996 | 353° | 5km/h | 26244m | -24.3m/s | -50.7°C | 4.0% | 0hPa | 2.6V | 00:00:00 | 02:00:55 | 00:00:00 | |
| DJ2DS-15 | 2026-08-31 00:49:40 | 55.26473 | -1.52980 | 11° | 9km/h | 26949m | -45.8m/s | -50.4°C | 4.1% | 0hPa | 2.6V | 00:00:00 | 02:00:35 | 00:00:00 | |
| DJ2DS-15 | 2026-08-31 00:49:32 | 55.26457 | -1.52992 | 70° | 5km/h | 27317m | -47.2m/s | -49.8°C | 1.1% | -1.0hPa | 2.6V | 00:00:00 | 00:00:00 | 00:00:00 | |
| DJ2DS-15 | 2026-08-31 00:49:20 | 55.26462 | -1.52966 | 301° | 15km/h | 27759m | -20.4m/s | -48.9°C | 3.6% | 0hPa | 2.6V | 00:00:00 | 02:00:15 | 00:00:00 | |
| DJ2DS-15 | 2026-08-31 00:48:56 | 55.26443 | -1.52828 | 254° | 9km/h | 27829m | 5.5m/s | -49.2°C | 1.0% | -1.0hPa | 2.6V | 00:00:00 | 00:00:00 | 00:00:00 | |
| DJ2DS-15 | 2026-08-31 00:48:40 | 55.26452 | -1.52748 | 222° | 9km/h | 27744m | 5.9m/s | -49.1°C | 3.7% | 0hPa | 2.6V | 00:00:00 | 01:59:35 | 00:00:00 | |
| DJ2DS-15 | 2026-08-31 00:48:20 | 55.26481 | -1.52705 | 140° | 9km/h | 27626m | 5.5m/s | -49.7°C | 3.9% | 0hPa | 2.6V | 00:00:00 | 01:59:15 | 00:00:00 | |
| DJ2DS-15 | 2026-08-31 00:48:00 | 55.26511 | -1.52746 | 198° | 13km/h | 27510m | 5.6m/s | -49.5°C | 3.7% | 0hPa | 2.6V | 00:00:00 | 01:58:55 | 08:30:00 | |
| DJ2DS-15 | 2026-08-31 00:47:39 | 55.26477 | -1.52829 | 27° | 13km/h | 27392m | 4.8m/s | -50.4°C | 3.9% | 0hPa | 2.6V | 00:00:00 | 01:58:34 | 00:00:00 | |
| DJ2DS-15 | 2026-08-31 00:47:19 | 55.26420 | -1.52877 | 22° | 11km/h | 27279m | 5.1m/s | -50.7°C | 3.9% | 0hPa | 2.6V | 00:00:00 | 01:58:14 | 00:00:00 | |
| DJ2DS-15 | 2026-08-31 00:46:59 | 55.26370 | -1.52892 | 13° | 16km/h | 27168m | 5.5m/s | -51.0°C | 4.0% | 0hPa | 2.6V | 00:00:00 | 01:57:54 | 00:00:00 | |
| DJ2DS-15 | 2026-08-31 00:46:39 | 55.26294 | -1.52923 | 328° | 9km/h | 27059m | 6.6m/s | -51.1°C | 4.0% | 0hPa | 2.6V | 00:00:00 | 01:57:34 | 00:00:00 | |
| DJ2DS-15 | 2026-08-31 00:46:32 | 55.26263 | -1.52917 | 18° | 7km/h | 27003m | 6.4m/s | -51.2°C | 1.1% | -1.0hPa | 2.6V | 00:00:00 | 00:00:00 | 00:00:00 | |
| DJ2DS-15 | 2026-08-31 00:46:19 | 55.26248 | -1.52904 | 344° | 9km/h | 26948m | 5.8m/s | -51.0°C | 4.0% | 0hPa | 2.6V | 00:00:00 | 01:57:14 | 00:00:00 | |
| DJ2DS-15 | 2026-08-31 00:45:59 | 55.26247 | -1.52849 | 174° | 13km/h | 26836m | 4.9m/s | -50.9°C | 4.0% | 0hPa | 2.6V | 00:00:00 | 01:56:54 | 00:00:00 | |
| DJ2DS-15 | 2026-08-31 00:45:39 | 55.26294 | -1.52798 | 268° | 11km/h | 26728m | 4.8m/s | 0°C | 0% | 0hPa | 0V | 00:00:00 | 01:56:34 | 00:00:00 |